sensor_id;sensor_type;location;lat;lon;timestamp;pressure;altitude;pressure_sealevel;temperature;humidity
50268;BME280;36153;50.960;6.220;2023-07-31T00:02:16;100216.69;;;20.82;64.42
50268;BME280;36153;50.960;6.220;2023-07-31T00:05:17;100216.44;;;20.88;64.14
50268;BME280;36153;50.960;6.220;2023-07-31T00:08:17;100223.13;;;20.98;63.78
50268;BME280;36153;50.960;6.220;2023-07-31T00:11:17;100220.34;;;20.78;64.24
50268;BME280;36153;50.960;6.220;2023-07-31T00:14:18;100220.75;;;20.91;63.77
50268;BME280;36153;50.960;6.220;2023-07-31T00:17:18;100222.50;;;20.92;63.60
50268;BME280;36153;50.960;6.220;2023-07-31T00:20:18;100218.72;;;20.74;63.78
50268;BME280;36153;50.960;6.220;2023-07-31T00:23:19;100220.22;;;20.81;63.26
50268;BME280;36153;50.960;6.220;2023-07-31T00:26:19;100206.25;;;21.01;62.81
50268;BME280;36153;50.960;6.220;2023-07-31T00:29:19;100220.22;;;20.81;63.25
50268;BME280;36153;50.960;6.220;2023-07-31T00:32:20;100210.06;;;20.69;63.50
50268;BME280;36153;50.960;6.220;2023-07-31T00:35:20;100202.63;;;20.80;62.84
50268;BME280;36153;50.960;6.220;2023-07-31T00:38:21;100205.03;;;20.86;62.89
50268;BME280;36153;50.960;6.220;2023-07-31T00:41:21;100208.88;;;20.77;62.98
50268;BME280;36153;50.960;6.220;2023-07-31T00:44:21;100196.66;;;20.98;62.25
50268;BME280;36153;50.960;6.220;2023-07-31T00:47:22;100200.56;;;20.88;62.58
50268;BME280;36153;50.960;6.220;2023-07-31T00:50:24;100194.81;;;20.77;62.99
50268;BME280;36153;50.960;6.220;2023-07-31T00:53:25;100195.41;;;20.85;62.82
50268;BME280;36153;50.960;6.220;2023-07-31T00:56:27;100197.09;;;20.86;62.60
50268;BME280;36153;50.960;6.220;2023-07-31T00:59:28;100192.03;;;20.80;62.49
50268;BME280;36153;50.960;6.220;2023-07-31T01:02:28;100186.03;;;20.75;62.71
50268;BME280;36153;50.960;6.220;2023-07-31T01:12:27;100181.47;;;20.80;63.12
50268;BME280;36153;50.960;6.220;2023-07-31T01:15:28;100177.78;;;20.84;63.01
50268;BME280;36153;50.960;6.220;2023-07-31T01:18:28;100168.75;;;20.90;62.82
50268;BME280;36153;50.960;6.220;2023-07-31T01:28:43;100172.78;;;21.00;62.91
50268;BME280;36153;50.960;6.220;2023-07-31T01:31:48;100174.34;;;20.82;63.57
50268;BME280;36153;50.960;6.220;2023-07-31T01:34:50;100163.66;;;20.85;63.48
50268;BME280;36153;50.960;6.220;2023-07-31T01:37:52;100162.44;;;20.94;63.62
50268;BME280;36153;50.960;6.220;2023-07-31T01:40:54;100173.53;;;21.04;63.56
50268;BME280;36153;50.960;6.220;2023-07-31T01:43:54;100165.31;;;21.11;63.72
50268;BME280;36153;50.960;6.220;2023-07-31T01:46:54;100163.66;;;21.09;63.41
50268;BME280;36153;50.960;6.220;2023-07-31T01:49:55;100161.13;;;21.06;63.59
50268;BME280;36153;50.960;6.220;2023-07-31T01:52:55;100150.19;;;21.15;63.43
50268;BME280;36153;50.960;6.220;2023-07-31T01:55:55;100148.28;;;21.19;63.07
50268;BME280;36153;50.960;6.220;2023-07-31T01:58:56;100152.59;;;21.21;62.99
50268;BME280;36153;50.960;6.220;2023-07-31T02:01:56;100149.06;;;21.21;62.98
50268;BME280;36153;50.960;6.220;2023-07-31T02:04:56;100155.97;;;21.25;63.08
50268;BME280;36153;50.960;6.220;2023-07-31T02:07:57;100145.47;;;21.00;63.39
50268;BME280;36153;50.960;6.220;2023-07-31T02:10:57;100146.88;;;21.10;63.36
50268;BME280;36153;50.960;6.220;2023-07-31T02:13:57;100142.53;;;21.31;62.65
50268;BME280;36153;50.960;6.220;2023-07-31T02:16:58;100144.28;;;21.30;62.52
50268;BME280;36153;50.960;6.220;2023-07-31T02:19:58;100137.97;;;21.35;62.54
50268;BME280;36153;50.960;6.220;2023-07-31T02:22:58;100140.84;;;21.28;62.66
50268;BME280;36153;50.960;6.220;2023-07-31T02:25:59;100133.00;;;21.49;61.69
50268;BME280;36153;50.960;6.220;2023-07-31T02:28:59;100137.53;;;21.45;61.68
50268;BME280;36153;50.960;6.220;2023-07-31T02:31:59;100138.38;;;21.46;61.77
50268;BME280;36153;50.960;6.220;2023-07-31T02:35:00;100133.00;;;21.49;61.47
50268;BME280;36153;50.960;6.220;2023-07-31T02:38:00;100131.50;;;21.42;61.80
50268;BME280;36153;50.960;6.220;2023-07-31T02:41:00;100140.47;;;21.38;62.05
50268;BME280;36153;50.960;6.220;2023-07-31T02:44:01;100133.00;;;21.49;62.06
50268;BME280;36153;50.960;6.220;2023-07-31T02:47:01;100116.16;;;21.50;62.18
50268;BME280;36153;50.960;6.220;2023-07-31T02:50:03;100114.75;;;21.41;62.60
50268;BME280;36153;50.960;6.220;2023-07-31T02:53:04;100112.78;;;21.46;62.61
50268;BME280;36153;50.960;6.220;2023-07-31T02:56:04;100114.22;;;21.55;61.90
50268;BME280;36153;50.960;6.220;2023-07-31T02:59:04;100123.44;;;21.45;62.61
50268;BME280;36153;50.960;6.220;2023-07-31T03:02:05;100115.50;;;21.45;62.83
50268;BME280;36153;50.960;6.220;2023-07-31T03:05:05;100112.72;;;21.48;62.25
50268;BME280;36153;50.960;6.220;2023-07-31T03:08:06;100116.75;;;21.58;62.11
50268;BME280;36153;50.960;6.220;2023-07-31T03:11:06;100118.50;;;21.36;62.49
50268;BME280;36153;50.960;6.220;2023-07-31T03:14:06;100107.84;;;21.37;62.56
50268;BME280;36153;50.960;6.220;2023-07-31T03:17:07;100097.31;;;21.36;62.64
50268;BME280;36153;50.960;6.220;2023-07-31T03:20:08;100101.09;;;21.30;62.56
50268;BME280;36153;50.960;6.220;2023-07-31T03:23:08;100104.97;;;21.43;62.04
50268;BME280;36153;50.960;6.220;2023-07-31T03:26:09;100106.19;;;21.35;62.63
50268;BME280;36153;50.960;6.220;2023-07-31T03:29:09;100096.00;;;21.47;62.17
50268;BME280;36153;50.960;6.220;2023-07-31T03:32:09;100100.28;;;21.50;62.19
50268;BME280;36153;50.960;6.220;2023-07-31T03:35:10;100093.88;;;21.57;61.73
50268;BME280;36153;50.960;6.220;2023-07-31T03:38:10;100089.09;;;21.65;61.54
50268;BME280;36153;50.960;6.220;2023-07-31T03:41:10;100089.75;;;21.71;61.13
50268;BME280;36153;50.960;6.220;2023-07-31T03:44:11;100083.19;;;21.59;61.42
50268;BME280;36153;50.960;6.220;2023-07-31T03:47:11;100084.34;;;21.74;60.78
50268;BME280;36153;50.960;6.220;2023-07-31T03:50:11;100078.94;;;21.77;60.67
50268;BME280;36153;50.960;6.220;2023-07-31T03:53:12;100082.25;;;21.60;61.44
50268;BME280;36153;50.960;6.220;2023-07-31T03:56:13;100084.72;;;21.64;60.89
50268;BME280;36153;50.960;6.220;2023-07-31T03:59:13;100080.69;;;21.76;60.68
50268;BME280;36153;50.960;6.220;2023-07-31T04:02:14;100082.09;;;21.64;60.97
50268;BME280;36153;50.960;6.220;2023-07-31T04:05:14;100069.47;;;21.71;61.03
50268;BME280;36153;50.960;6.220;2023-07-31T04:08:14;100065.91;;;21.71;60.73
50268;BME280;36153;50.960;6.220;2023-07-31T04:11:15;100058.53;;;21.79;60.76
50268;BME280;36153;50.960;6.220;2023-07-31T04:14:15;100066.97;;;21.67;60.76
50268;BME280;36153;50.960;6.220;2023-07-31T04:17:17;100064.25;;;21.68;60.82
50268;BME280;36153;50.960;6.220;2023-07-31T04:20:18;100072.88;;;21.73;60.82
50268;BME280;36153;50.960;6.220;2023-07-31T04:23:18;100063.75;;;21.80;60.54
50268;BME280;36153;50.960;6.220;2023-07-31T04:26:18;100056.63;;;21.82;60.42
50268;BME280;36153;50.960;6.220;2023-07-31T04:29:19;100048.19;;;21.93;59.96
50268;BME280;36153;50.960;6.220;2023-07-31T04:32:19;100052.84;;;21.88;60.06
50268;BME280;36153;50.960;6.220;2023-07-31T04:35:21;100050.31;;;21.85;59.97
50268;BME280;36153;50.960;6.220;2023-07-31T04:38:21;100054.50;;;21.91;59.83
50268;BME280;36153;50.960;6.220;2023-07-31T04:41:22;100040.75;;;22.02;59.50
50268;BME280;36153;50.960;6.220;2023-07-31T04:44:22;100036.13;;;22.07;59.35
50268;BME280;36153;50.960;6.220;2023-07-31T04:47:22;100026.91;;;22.15;58.94
50268;BME280;36153;50.960;6.220;2023-07-31T04:50:23;100028.72;;;22.15;58.63
50268;BME280;36153;50.960;6.220;2023-07-31T04:53:23;100041.56;;;22.24;58.48
50268;BME280;36153;50.960;6.220;2023-07-31T04:56:23;100032.63;;;22.27;58.66
50268;BME280;36153;50.960;6.220;2023-07-31T04:59:24;100018.78;;;22.20;58.67
50268;BME280;36153;50.960;6.220;2023-07-31T05:02:24;100024.47;;;22.11;59.22
50268;BME280;36153;50.960;6.220;2023-07-31T05:05:24;100018.19;;;22.13;58.88
50268;BME280;36153;50.960;6.220;2023-07-31T05:08:25;100015.16;;;22.21;58.50
50268;BME280;36153;50.960;6.220;2023-07-31T05:11:25;100011.88;;;22.16;58.70
50268;BME280;36153;50.960;6.220;2023-07-31T05:14:26;100017.19;;;21.95;59.20
50268;BME280;36153;50.960;6.220;2023-07-31T05:17:26;100001.97;;;22.01;59.37
50268;BME280;36153;50.960;6.220;2023-07-31T05:20:26;100001.97;;;22.01;59.32
50268;BME280;36153;50.960;6.220;2023-07-31T05:23:27;99994.19;;;21.96;59.30
50268;BME280;36153;50.960;6.220;2023-07-31T05:26:28;99991.75;;;21.91;59.36
50268;BME280;36153;50.960;6.220;2023-07-31T05:29:28;99981.97;;;21.73;60.48
50268;BME280;36153;50.960;6.220;2023-07-31T05:32:28;99988.97;;;21.74;60.33
50268;BME280;36153;50.960;6.220;2023-07-31T05:35:29;99988.94;;;21.75;60.55
50268;BME280;36153;50.960;6.220;2023-07-31T05:38:29;99994.16;;;21.77;60.70
50268;BME280;36153;50.960;6.220;2023-07-31T05:41:30;99989.38;;;21.85;60.41
50268;BME280;36153;50.960;6.220;2023-07-31T05:44:30;99993.13;;;21.79;60.93
50268;BME280;36153;50.960;6.220;2023-07-31T05:47:31;99995.31;;;21.70;61.11
50268;BME280;36153;50.960;6.220;2023-07-31T05:50:31;99983.63;;;21.75;61.67
50268;BME280;36153;50.960;6.220;2023-07-31T05:53:32;99989.97;;;21.71;61.37
50268;BME280;36153;50.960;6.220;2023-07-31T05:56:32;99984.69;;;21.71;61.79
50268;BME280;36153;50.960;6.220;2023-07-31T05:59:34;99989.78;;;21.76;62.04
50268;BME280;36153;50.960;6.220;2023-07-31T06:02:34;99976.91;;;21.87;61.84
50268;BME280;36153;50.960;6.220;2023-07-31T06:05:36;99972.28;;;21.92;61.88
50268;BME280;36153;50.960;6.220;2023-07-31T06:08:37;99964.56;;;22.07;61.37
50268;BME280;36153;50.960;6.220;2023-07-31T06:11:37;99967.88;;;22.31;60.50
50268;BME280;36153;50.960;6.220;2023-07-31T06:14:37;99974.16;;;22.30;60.64
50268;BME280;36153;50.960;6.220;2023-07-31T06:17:38;99963.47;;;22.31;60.86
50268;BME280;36153;50.960;6.220;2023-07-31T06:20:38;99956.69;;;22.45;60.10
50268;BME280;36153;50.960;6.220;2023-07-31T06:23:40;99958.47;;;22.44;60.40
50268;BME280;36153;50.960;6.220;2023-07-31T06:26:40;99962.22;;;22.59;60.10
50268;BME280;36153;50.960;6.220;2023-07-31T06:29:42;99961.22;;;22.43;59.76
50268;BME280;36153;50.960;6.220;2023-07-31T06:32:42;99964.41;;;22.68;59.58
50268;BME280;36153;50.960;6.220;2023-07-31T06:35:43;99969.19;;;22.62;59.16
50268;BME280;36153;50.960;6.220;2023-07-31T06:38:43;99957.41;;;22.48;59.79
50268;BME280;36153;50.960;6.220;2023-07-31T06:41:44;99956.19;;;22.37;59.66
50268;BME280;36153;50.960;6.220;2023-07-31T06:44:44;99952.31;;;22.44;59.55
50268;BME280;36153;50.960;6.220;2023-07-31T06:47:45;99955.00;;;22.23;59.72
50268;BME280;36153;50.960;6.220;2023-07-31T06:50:45;99955.78;;;22.25;59.94
50268;BME280;36153;50.960;6.220;2023-07-31T06:53:46;99961.88;;;22.27;59.83
50268;BME280;36153;50.960;6.220;2023-07-31T06:56:46;99966.69;;;22.19;60.14
50268;BME280;36153;50.960;6.220;2023-07-31T06:59:46;99965.31;;;22.10;60.17
50268;BME280;36153;50.960;6.220;2023-07-31T07:02:47;99970.28;;;21.97;60.88
50268;BME280;36153;50.960;6.220;2023-07-31T07:05:48;99968.13;;;21.87;61.31
50268;BME280;36153;50.960;6.220;2023-07-31T07:08:48;99962.22;;;21.80;61.66
50268;BME280;36153;50.960;6.220;2023-07-31T07:11:49;99948.44;;;21.92;61.69
50268;BME280;36153;50.960;6.220;2023-07-31T07:14:49;99957.09;;;21.96;61.20
50268;BME280;36153;50.960;6.220;2023-07-31T07:17:50;99953.00;;;21.89;61.80
50268;BME280;36153;50.960;6.220;2023-07-31T07:20:51;99954.66;;;21.91;61.81
50268;BME280;36153;50.960;6.220;2023-07-31T07:23:52;99957.78;;;21.60;62.91
50268;BME280;36153;50.960;6.220;2023-07-31T07:26:52;99950.25;;;21.71;62.76
50268;BME280;36153;50.960;6.220;2023-07-31T07:29:53;99950.72;;;21.81;62.50
50268;BME280;36153;50.960;6.220;2023-07-31T07:32:53;99956.34;;;21.51;63.28
50268;BME280;36153;50.960;6.220;2023-07-31T07:35:53;99954.66;;;21.71;62.67
50268;BME280;36153;50.960;6.220;2023-07-31T07:38:54;99953.97;;;21.67;63.23
50268;BME280;36153;50.960;6.220;2023-07-31T07:41:54;99960.50;;;21.58;63.55
50268;BME280;36153;50.960;6.220;2023-07-31T07:44:55;99953.59;;;21.75;63.72
50268;BME280;36153;50.960;6.220;2023-07-31T07:47:55;99950.56;;;21.84;62.85
50268;BME280;36153;50.960;6.220;2023-07-31T07:50:55;99938.22;;;22.04;63.24
50268;BME280;36153;50.960;6.220;2023-07-31T07:53:56;99936.06;;;22.12;62.86
50268;BME280;36153;50.960;6.220;2023-07-31T07:56:56;99937.91;;;22.10;62.41
50268;BME280;36153;50.960;6.220;2023-07-31T07:59:56;99923.31;;;22.01;63.54
50268;BME280;36153;50.960;6.220;2023-07-31T08:02:57;99924.88;;;22.05;62.87
50268;BME280;36153;50.960;6.220;2023-07-31T08:05:59;99931.47;;;22.15;63.16
50268;BME280;36153;50.960;6.220;2023-07-31T08:08:59;99928.38;;;22.45;62.68
50268;BME280;36153;50.960;6.220;2023-07-31T08:12:00;99926.34;;;22.70;62.08
50268;BME280;36153;50.960;6.220;2023-07-31T08:15:04;99911.94;;;23.29;60.24
50268;BME280;36153;50.960;6.220;2023-07-31T08:18:04;99915.66;;;23.08;60.19
50268;BME280;36153;50.960;6.220;2023-07-31T08:21:05;99910.81;;;22.98;60.31
50268;BME280;36153;50.960;6.220;2023-07-31T08:24:06;99917.78;;;22.82;60.37
50268;BME280;36153;50.960;6.220;2023-07-31T08:27:07;99915.44;;;22.76;60.68
50268;BME280;36153;50.960;6.220;2023-07-31T08:30:08;99921.03;;;22.70;60.09
50268;BME280;36153;50.960;6.220;2023-07-31T08:33:09;99925.00;;;22.61;60.49
50268;BME280;36153;50.960;6.220;2023-07-31T08:36:09;99923.78;;;22.49;61.02
50268;BME280;36153;50.960;6.220;2023-07-31T08:39:10;99926.50;;;22.66;60.96
50268;BME280;36153;50.960;6.220;2023-07-31T08:42:10;99931.50;;;22.73;60.60
50268;BME280;36153;50.960;6.220;2023-07-31T08:45:16;99924.81;;;22.46;61.32
50268;BME280;36153;50.960;6.220;2023-07-31T08:48:17;99927.66;;;22.42;61.75
50268;BME280;36153;50.960;6.220;2023-07-31T08:51:17;99921.19;;;22.47;61.36
50268;BME280;36153;50.960;6.220;2023-07-31T08:54:18;99914.44;;;22.78;61.14
50268;BME280;36153;50.960;6.220;2023-07-31T08:57:18;99910.56;;;22.86;60.52
50268;BME280;36153;50.960;6.220;2023-07-31T09:00:20;99926.59;;;22.82;60.98
50268;BME280;36153;50.960;6.220;2023-07-31T09:03:25;99914.13;;;22.84;60.99
50268;BME280;36153;50.960;6.220;2023-07-31T09:06:28;99918.25;;;23.09;60.72
50268;BME280;36153;50.960;6.220;2023-07-31T09:09:33;99921.31;;;23.72;59.25
50268;BME280;36153;50.960;6.220;2023-07-31T09:12:33;99913.63;;;23.83;58.76
50268;BME280;36153;50.960;6.220;2023-07-31T09:15:35;99915.06;;;24.06;58.08
50268;BME280;36153;50.960;6.220;2023-07-31T09:18:53;99905.25;;;23.91;58.79
50268;BME280;36153;50.960;6.220;2023-07-31T09:21:54;99902.19;;;23.98;58.40
50268;BME280;36153;50.960;6.220;2023-07-31T09:24:55;99906.31;;;24.04;57.77
50268;BME280;36153;50.960;6.220;2023-07-31T09:28:09;99912.09;;;24.28;57.66
50268;BME280;36153;50.960;6.220;2023-07-31T09:31:09;99906.41;;;24.18;57.56
50268;BME280;36153;50.960;6.220;2023-07-31T09:34:11;99905.25;;;23.91;58.27
50268;BME280;36153;50.960;6.220;2023-07-31T09:37:13;99906.72;;;23.96;58.32
50268;BME280;36153;50.960;6.220;2023-07-31T09:40:31;99906.28;;;23.71;58.40
50268;BME280;36153;50.960;6.220;2023-07-31T09:43:32;99903.81;;;23.50;58.86
50268;BME280;36153;50.960;6.220;2023-07-31T09:46:37;99894.63;;;23.40;59.52
50268;BME280;36153;50.960;6.220;2023-07-31T09:49:38;99890.75;;;23.63;59.39
50268;BME280;36153;50.960;6.220;2023-07-31T09:52:38;99896.16;;;23.95;59.03
50268;BME280;36153;50.960;6.220;2023-07-31T09:55:41;99893.28;;;23.99;58.94
50268;BME280;36153;50.960;6.220;2023-07-31T09:58:41;99886.25;;;24.14;58.21
50268;BME280;36153;50.960;6.220;2023-07-31T10:01:43;99887.44;;;24.09;58.33
50268;BME280;36153;50.960;6.220;2023-07-31T10:04:44;99890.72;;;24.14;57.83
50268;BME280;36153;50.960;6.220;2023-07-31T10:07:53;99884.53;;;23.97;58.07
50268;BME280;36153;50.960;6.220;2023-07-31T10:10:53;99895.88;;;23.66;59.27
50268;BME280;36153;50.960;6.220;2023-07-31T10:13:54;99890.91;;;24.11;58.32
50268;BME280;36153;50.960;6.220;2023-07-31T10:16:57;99899.22;;;24.36;58.36
50268;BME280;36153;50.960;6.220;2023-07-31T10:19:58;99892.44;;;24.31;57.80
50268;BME280;36153;50.960;6.220;2023-07-31T10:23:03;99889.91;;;24.61;57.90
50268;BME280;36153;50.960;6.220;2023-07-31T10:26:05;99902.50;;;24.42;57.47
50268;BME280;36153;50.960;6.220;2023-07-31T10:29:06;99898.69;;;24.14;58.25
50268;BME280;36153;50.960;6.220;2023-07-31T10:32:09;99901.91;;;23.69;58.11
50268;BME280;36153;50.960;6.220;2023-07-31T10:35:11;99900.34;;;23.65;58.75
50268;BME280;36153;50.960;6.220;2023-07-31T10:38:12;99889.06;;;23.95;58.36
50268;BME280;36153;50.960;6.220;2023-07-31T10:41:13;99879.69;;;23.88;58.37
50268;BME280;36153;50.960;6.220;2023-07-31T10:44:16;99883.66;;;23.97;57.58
50268;BME280;36153;50.960;6.220;2023-07-31T10:47:17;99884.38;;;24.32;55.93
50268;BME280;36153;50.960;6.220;2023-07-31T10:50:22;99883.28;;;24.52;55.79
50268;BME280;36153;50.960;6.220;2023-07-31T10:53:31;99883.94;;;24.88;55.17
50268;BME280;36153;50.960;6.220;2023-07-31T10:56:37;99881.03;;;24.77;54.81
50268;BME280;36153;50.960;6.220;2023-07-31T10:59:38;99868.09;;;24.70;55.13
50268;BME280;36153;50.960;6.220;2023-07-31T11:02:38;99867.25;;;25.00;54.42
50268;BME280;36153;50.960;6.220;2023-07-31T11:05:49;99868.19;;;24.99;54.01
50268;BME280;36153;50.960;6.220;2023-07-31T11:08:50;99873.91;;;24.77;54.42
50268;BME280;36153;50.960;6.220;2023-07-31T11:11:51;99871.31;;;24.92;54.04
50268;BME280;36153;50.960;6.220;2023-07-31T11:14:56;99875.03;;;25.03;54.04
50268;BME280;36153;50.960;6.220;2023-07-31T11:17:57;99864.44;;;25.18;53.55
50268;BME280;36153;50.960;6.220;2023-07-31T11:21:00;99856.13;;;25.38;53.10
50268;BME280;36153;50.960;6.220;2023-07-31T11:24:00;99866.09;;;24.74;54.01
50268;BME280;36153;50.960;6.220;2023-07-31T11:27:07;99871.31;;;24.92;54.51
50268;BME280;36153;50.960;6.220;2023-07-31T11:30:08;99870.38;;;24.77;54.69
50268;BME280;36153;50.960;6.220;2023-07-31T11:33:10;99872.63;;;24.52;54.57
50268;BME280;36153;50.960;6.220;2023-07-31T11:36:19;99867.22;;;24.54;54.97
50268;BME280;36153;50.960;6.220;2023-07-31T11:39:20;99872.28;;;24.11;55.61
50268;BME280;36153;50.960;6.220;2023-07-31T11:42:20;99865.16;;;24.27;55.58
50268;BME280;36153;50.960;6.220;2023-07-31T11:45:20;99860.19;;;24.37;55.43
50268;BME280;36153;50.960;6.220;2023-07-31T11:48:25;99851.59;;;24.48;54.86
50268;BME280;36153;50.960;6.220;2023-07-31T11:51:28;99869.78;;;24.40;55.24
50268;BME280;36153;50.960;6.220;2023-07-31T11:54:29;99860.88;;;24.57;55.34
50268;BME280;36153;50.960;6.220;2023-07-31T11:57:30;99865.75;;;24.32;56.15
50268;BME280;36153;50.960;6.220;2023-07-31T12:00:31;99864.81;;;24.33;56.02
50268;BME280;36153;50.960;6.220;2023-07-31T12:03:32;99876.22;;;24.51;55.42
50268;BME280;36153;50.960;6.220;2023-07-31T12:06:34;99870.44;;;24.59;56.15
50268;BME280;36153;50.960;6.220;2023-07-31T12:09:35;99873.75;;;24.32;56.68
50268;BME280;36153;50.960;6.220;2023-07-31T12:12:35;99860.44;;;24.80;55.90
50268;BME280;36153;50.960;6.220;2023-07-31T12:15:40;99845.19;;;25.72;53.04
50268;BME280;36153;50.960;6.220;2023-07-31T12:18:40;99844.63;;;25.81;52.52
50268;BME280;36153;50.960;6.220;2023-07-31T12:21:41;99831.41;;;26.09;52.14
50268;BME280;36153;50.960;6.220;2023-07-31T12:24:43;99820.91;;;26.20;51.09
50268;BME280;36153;50.960;6.220;2023-07-31T12:27:53;99832.16;;;26.11;50.69
50268;BME280;36153;50.960;6.220;2023-07-31T12:30:57;99829.22;;;25.43;52.79
50268;BME280;36153;50.960;6.220;2023-07-31T12:33:59;99832.63;;;25.45;52.63
50268;BME280;36153;50.960;6.220;2023-07-31T12:37:00;99837.91;;;25.16;52.64
50268;BME280;36153;50.960;6.220;2023-07-31T12:40:01;99843.41;;;24.83;53.89
50268;BME280;36153;50.960;6.220;2023-07-31T12:43:05;99843.47;;;24.51;54.56
50268;BME280;36153;50.960;6.220;2023-07-31T12:46:06;99839.41;;;24.44;55.00
50268;BME280;36153;50.960;6.220;2023-07-31T12:49:08;99826.00;;;24.45;55.09
50268;BME280;36153;50.960;6.220;2023-07-31T12:52:08;99801.38;;;24.74;54.22
50268;BME280;36153;50.960;6.220;2023-07-31T12:55:09;99787.47;;;25.13;52.90
50268;BME280;36153;50.960;6.220;2023-07-31T12:58:11;99767.06;;;25.57;52.16
50268;BME280;36153;50.960;6.220;2023-07-31T13:01:11;99754.00;;;26.50;49.69
50268;BME280;36153;50.960;6.220;2023-07-31T13:04:11;99753.97;;;27.16;48.02
50268;BME280;36153;50.960;6.220;2023-07-31T13:07:12;99735.47;;;27.26;47.51
50268;BME280;36153;50.960;6.220;2023-07-31T13:10:12;99745.38;;;27.75;47.07
50268;BME280;36153;50.960;6.220;2023-07-31T13:13:13;99742.19;;;27.70;46.31
50268;BME280;36153;50.960;6.220;2023-07-31T13:16:13;99731.94;;;28.01;45.52
50268;BME280;36153;50.960;6.220;2023-07-31T13:19:13;99733.66;;;28.02;46.33
50268;BME280;36153;50.960;6.220;2023-07-31T13:22:14;99737.47;;;28.71;44.46
50268;BME280;36153;50.960;6.220;2023-07-31T13:25:14;99729.09;;;28.40;44.77
50268;BME280;36153;50.960;6.220;2023-07-31T13:28:14;99741.22;;;28.08;45.31
50268;BME280;36153;50.960;6.220;2023-07-31T13:31:15;99753.34;;;27.64;45.44
50268;BME280;36153;50.960;6.220;2023-07-31T13:34:15;99751.16;;;26.79;47.72
50268;BME280;36153;50.960;6.220;2023-07-31T13:37:16;99746.69;;;26.80;47.68
50268;BME280;36153;50.960;6.220;2023-07-31T13:40:16;99755.22;;;26.04;49.16
50268;BME280;36153;50.960;6.220;2023-07-31T13:43:16;99763.25;;;25.47;50.71
50268;BME280;36153;50.960;6.220;2023-07-31T13:46:17;99764.84;;;25.20;51.21
50268;BME280;36153;50.960;6.220;2023-07-31T13:49:18;99766.22;;;24.83;51.88
50268;BME280;36153;50.960;6.220;2023-07-31T13:52:18;99764.38;;;25.14;51.09
50268;BME280;36153;50.960;6.220;2023-07-31T13:55:18;99771.19;;;25.03;51.71
50268;BME280;36153;50.960;6.220;2023-07-31T13:58:20;99785.63;;;24.85;52.17
50268;BME280;36153;50.960;6.220;2023-07-31T14:01:20;99778.22;;;24.90;51.95
50268;BME280;36153;50.960;6.220;2023-07-31T14:04:20;99769.50;;;25.17;51.22
50268;BME280;36153;50.960;6.220;2023-07-31T14:07:21;99762.94;;;25.22;50.90
50268;BME280;36153;50.960;6.220;2023-07-31T14:10:21;99760.78;;;25.72;49.72
50268;BME280;36153;50.960;6.220;2023-07-31T14:13:21;99755.94;;;26.21;48.32
50268;BME280;36153;50.960;6.220;2023-07-31T14:16:22;99756.34;;;26.28;48.44
50268;BME280;36153;50.960;6.220;2023-07-31T14:19:22;99740.78;;;26.34;48.65
50268;BME280;36153;50.960;6.220;2023-07-31T14:22:30;99736.38;;;26.48;47.99
50268;BME280;36153;50.960;6.220;2023-07-31T14:25:31;99734.63;;;25.92;48.97
50268;BME280;36153;50.960;6.220;2023-07-31T14:28:31;99723.47;;;25.72;49.36
50268;BME280;36153;50.960;6.220;2023-07-31T14:31:31;99715.09;;;25.64;49.45
50268;BME280;36153;50.960;6.220;2023-07-31T14:34:32;99701.13;;;25.46;49.30
50268;BME280;36153;50.960;6.220;2023-07-31T14:37:43;99700.84;;;25.36;49.69
50268;BME280;36153;50.960;6.220;2023-07-31T14:40:43;99704.28;;;25.38;49.92
50268;BME280;36153;50.960;6.220;2023-07-31T14:43:44;99704.09;;;25.42;50.06
50268;BME280;36153;50.960;6.220;2023-07-31T14:46:44;99715.59;;;25.42;49.66
50268;BME280;36153;50.960;6.220;2023-07-31T14:49:45;99712.84;;;25.44;49.55
50268;BME280;36153;50.960;6.220;2023-07-31T14:52:45;99705.50;;;25.18;50.35
50268;BME280;36153;50.960;6.220;2023-07-31T14:55:45;99703.44;;;24.64;51.21
50268;BME280;36153;50.960;6.220;2023-07-31T14:58:46;99704.63;;;24.89;50.64
50268;BME280;36153;50.960;6.220;2023-07-31T15:01:46;99693.97;;;25.03;50.58
50268;BME280;36153;50.960;6.220;2023-07-31T15:04:46;99687.53;;;25.22;50.21
50268;BME280;36153;50.960;6.220;2023-07-31T15:07:47;99696.84;;;25.44;49.83
50268;BME280;36153;50.960;6.220;2023-07-31T15:10:47;99694.28;;;25.42;49.75
50268;BME280;36153;50.960;6.220;2023-07-31T15:13:47;99690.88;;;25.40;49.52
50268;BME280;36153;50.960;6.220;2023-07-31T15:16:48;99685.44;;;24.98;50.67
50268;BME280;36153;50.960;6.220;2023-07-31T15:19:48;99671.31;;;24.67;51.46
50268;BME280;36153;50.960;6.220;2023-07-31T15:22:50;99676.56;;;24.39;52.61
50268;BME280;36153;50.960;6.220;2023-07-31T15:25:51;99665.31;;;24.19;53.49
50268;BME280;36153;50.960;6.220;2023-07-31T15:28:57;99667.09;;;24.18;54.99
50268;BME280;36153;50.960;6.220;2023-07-31T15:32:00;99684.31;;;23.97;56.24
50268;BME280;36153;50.960;6.220;2023-07-31T15:35:00;99683.00;;;23.88;56.72
50268;BME280;36153;50.960;6.220;2023-07-31T15:38:01;99660.63;;;23.92;56.91
50268;BME280;36153;50.960;6.220;2023-07-31T15:44:04;99676.47;;;23.62;57.77
50268;BME280;36153;50.960;6.220;2023-07-31T15:47:05;99648.72;;;23.35;58.80
50268;BME280;36153;50.960;6.220;2023-07-31T15:50:06;99662.69;;;23.23;59.30
50268;BME280;36153;50.960;6.220;2023-07-31T15:53:06;99652.16;;;22.88;60.83
50268;BME280;36153;50.960;6.220;2023-07-31T15:56:06;99646.94;;;23.02;60.28
50268;BME280;36153;50.960;6.220;2023-07-31T15:59:07;99638.53;;;22.94;60.31
50268;BME280;36153;50.960;6.220;2023-07-31T16:02:09;99641.19;;;22.94;59.78
50268;BME280;36153;50.960;6.220;2023-07-31T16:05:11;99632.00;;;22.84;60.28
50268;BME280;36153;50.960;6.220;2023-07-31T16:08:11;99622.31;;;22.49;61.80
50268;BME280;36153;50.960;6.220;2023-07-31T16:11:12;99616.03;;;22.68;61.49
50268;BME280;36153;50.960;6.220;2023-07-31T16:14:12;99616.00;;;22.86;61.57